Date,TemperatureHighF,TemperatureAvgF,TemperatureLowF,DewpointHighF,DewpointAvgF,DewpointLowF,HumidityHigh,HumidityAvg,HumidityLow,PressureMaxIn,PressureMinIn,WindSpeedMaxMPH,WindSpeedAvgMPH,GustSpeedMaxMPH,PrecipitationSumIn
2012-1-1,62.0,43.9,33.0,49.0,33.2,20.0,77,66,52,30.11,29.90,12,4,29,0.00
2012-1-2,37.0,28.1,17.0,21.0,11.7,6.0,71,51,37,30.02,29.90,17,7,43,0.00
2012-1-3,20.0,17.4,15.0,8.0,6.0,3.0,71,61,47,30.19,29.98,17,5,32,0.00
2012-1-4,43.0,25.7,12.0,22.0,11.3,4.0,75,57,31,30.21,30.01,7,2,20,0.00
2012-1-5,48.0,40.5,34.0,27.0,22.5,18.0,68,50,31,30.12,29.95,11,3,23,0.00
2012-1-6,59.0,40.4,29.0,29.0,23.2,20.0,72,53,28,30.10,29.98,4,1,11,0.00
2012-1-7,59.0,51.4,37.0,49.0,42.5,23.0,94,73,55,30.08,29.95,14,3,30,0.01
2012-1-8,51.0,45.4,40.0,47.0,43.5,39.0,99,93,82,30.21,30.08,5,0,8,0.03
2012-1-9,52.0,45.8,41.0,50.0,44.8,40.0,99,97,82,30.18,30.03,8,1,26,0.03
2012-1-10,56.0,49.0,40.0,46.0,42.6,37.0,93,79,64,30.08,29.95,6,1,17,0.02
2012-1-11,48.0,46.1,44.0,47.0,44.4,42.0,98,94,89,29.96,29.54,9,3,16,0.12
2012-1-12,52.0,43.5,25.0,43.0,39.2,15.0,98,85,65,29.65,29.51,13,3,32,0.04
2012-1-13,30.0,23.8,21.0,17.0,13.1,10.0,68,63,53,29.91,29.64,13,6,31,0.04
2012-1-14,37.0,32.6,24.0,28.0,16.8,4.0,84,52,35,30.09,30.00,8,2,20,0.00
2012-1-15,39.0,32.1,27.0,29.0,21.8,15.0,87,66,39,30.40,30.01,13,3,26,0.00
2012-1-16,45.0,35.8,26.0,29.0,22.5,19.0,78,60,38,30.41,30.25,4,1,10,0.00
2012-1-17,57.0,48.8,41.0,50.0,42.0,30.0,96,78,64,30.25,29.87,8,3,16,0.28
2012-1-18,49.0,34.9,28.0,45.0,25.4,20.0,87,68,56,30.06,29.90,16,3,31,0.28
2012-1-19,42.0,30.0,22.0,25.0,21.5,18.0,88,72,44,30.09,29.98,3,0,7,0.00
2012-1-20,53.0,40.6,30.0,42.0,33.2,23.0,95,76,61,30.08,29.99,5,1,9,0.18
2012-1-21,53.0,46.3,40.0,52.0,45.1,39.0,100,96,81,30.07,29.85,7,1,20,0.35
2012-1-22,46.0,40.4,36.0,45.0,38.5,35.0,99,93,87,30.22,30.07,6,1,11,0.03
2012-1-23,49.0,41.1,34.0,48.0,40.3,33.0,100,97,92,30.17,29.96,6,1,12,0.41
2012-1-24,57.0,44.0,35.0,42.0,31.8,20.0,100,70,24,30.24,30.00,7,1,19,0.01
2012-1-25,59.0,44.2,32.0,40.0,31.3,23.0,79,62,38,30.28,30.15,4,1,7,0.01
2012-1-26,60.0,53.7,47.0,55.0,49.4,41.0,96,85,73,30.16,29.71,9,2,21,0.33
2012-1-27,57.0,46.6,33.0,55.0,39.9,29.0,93,78,61,30.01,29.65,10,4,21,0.36
2012-1-28,51.0,36.6,29.0,37.0,28.0,15.0,92,72,48,30.19,29.99,16,3,24,0.01
2012-1-29,43.0,33.9,23.0,17.0,13.3,10.0,69,45,25,30.29,30.18,13,3,32,0.01
2012-1-30,52.0,40.4,30.0,24.0,19.5,14.0,61,44,30,30.36,30.20,11,2,25,0.00
2012-1-31,60.0,43.1,29.0,34.0,26.6,21.0,74,54,34,30.34,30.22,6,1,11,0.00
2012-2-1,59.0,48.2,38.0,51.0,42.6,26.0,97,82,62,30.24,30.07,5,1,10,0.51
2012-2-2,56.0,49.8,37.0,48.0,40.5,31.0,98,72,49,30.30,30.03,13,4,26,0.18
2012-2-3,53.0,40.6,32.0,31.0,27.8,23.0,86,64,36,30.40,30.30,6,1,11,0.00
2012-2-4,56.0,46.3,37.0,51.0,43.1,29.0,99,89,69,30.31,30.03,6,1,12,0.18
2012-2-5,58.0,50.8,41.0,51.0,44.5,37.0,100,80,60,30.14,29.95,13,3,24,0.13
2012-2-6,48.0,39.6,34.0,40.0,35.7,32.0,95,87,71,30.20,30.09,6,2,9,0.00
2012-2-7,53.0,36.7,28.0,34.0,27.7,17.0,95,73,25,30.14,30.07,4,1,8,0.01
2012-2-8,44.0,37.4,31.0,35.0,28.0,24.0,78,69,58,30.16,30.07,11,2,23,0.01
2012-2-9,46.0,34.4,27.0,28.0,24.5,21.0,83,68,46,30.20,30.10,7,2,16,0.00
2012-2-10,45.0,35.4,27.0,32.0,27.9,24.0,91,75,51,30.11,29.85,3,0,6,0.00
2012-2-11,39.0,27.2,15.0,30.0,17.1,3.0,77,66,49,30.06,29.76,14,6,33,0.00
2012-2-12,32.0,21.4,13.0,12.0,6.1,1.0,62,52,39,30.18,30.02,14,5,26,0.00
2012-2-13,46.0,29.9,16.0,19.0,13.8,9.0,78,54,28,30.18,30.02,6,1,8,0.00
2012-2-14,49.0,39.4,33.0,37.0,29.9,16.0,91,70,41,30.04,29.93,6,1,12,0.00
2012-2-15,54.0,41.6,32.0,33.0,30.4,27.0,95,68,37,30.23,30.04,4,1,8,0.00
2012-2-16,56.0,48.5,43.0,51.0,41.3,31.0,97,77,54,30.21,30.00,9,2,20,0.06
2012-2-17,57.0,45.2,34.0,39.0,33.4,27.0,95,67,32,30.11,30.04,7,1,13,0.01
2012-2-18,58.0,46.2,36.0,42.0,34.6,28.0,86,66,39,30.09,29.94,5,1,10,0.00
2012-2-19,47.0,39.2,33.0,43.0,37.1,31.0,97,92,83,29.94,29.69,8,2,20,0.45
2012-2-20,47.0,34.5,26.0,33.0,27.6,23.0,95,78,43,30.23,29.91,7,2,16,0.03
2012-2-21,52.0,39.2,28.0,37.0,30.6,23.0,87,72,56,30.23,29.96,8,2,17,0.02
2012-2-22,61.0,51.2,43.0,46.0,35.2,22.0,92,55,40,29.98,29.63,10,3,25,0.27
2012-2-23,68.0,54.7,42.0,52.0,46.9,41.0,98,77,51,29.71,29.63,9,3,19,0.28
2012-2-24,67.0,52.7,34.0,57.0,42.4,19.0,91,69,41,29.92,29.62,16,5,43,0.02
2012-2-25,44.0,35.1,30.0,19.0,16.4,13.0,58,47,34,30.23,29.90,14,7,34,0.02
2012-2-26,50.0,34.6,23.0,23.0,18.1,13.0,68,52,33,30.36,30.23,7,1,12,0.00
2012-2-27,61.0,46.5,32.0,45.0,33.0,22.0,84,60,38,30.35,30.27,5,1,10,0.01
2012-2-28,61.0,47.8,34.0,42.0,35.3,29.0,83,64,43,30.37,30.24,6,1,11,0.00
2012-2-29,68.0,58.3,51.0,57.0,51.9,42.0,94,80,61,30.24,29.88,8,3,18,0.03
2012-3-1,68.0,59.0,44.0,54.0,30.7,25.0,88,37,22,29.93,29.86,10,3,28,0.00
2012-3-2,61.0,52.5,42.0,57.0,42.8,28.0,97,71,42,29.95,29.72,5,1,14,0.27
2012-3-3,57.0,48.0,41.0,56.0,34.8,15.0,98,65,25,29.83,29.65,11,2,18,0.74
2012-3-4,43.0,35.8,32.0,24.0,19.5,16.0,70,52,37,29.95,29.71,14,5,34,0.02
2012-3-5,39.0,35.0,28.0,32.0,21.2,11.0,82,58,40,30.38,29.83,14,5,37,0.04
2012-3-6,53.0,36.4,24.0,25.0,18.9,13.0,66,51,31,30.54,30.38,5,1,11,0.01
2012-3-7,57.0,48.0,33.0,45.0,37.2,22.0,78,66,55,30.54,30.39,5,2,17,0.00
2012-3-8,60.0,54.5,50.0,53.0,48.3,45.0,95,80,64,30.39,30.12,5,1,10,0.25
2012-3-9,54.0,47.4,36.0,52.0,37.2,23.0,99,71,37,30.29,30.09,14,3,22,0.39
2012-3-10,55.0,40.8,29.0,29.0,22.5,17.0,79,52,25,30.45,30.29,7,2,11,0.01
2012-3-11,60.0,44.5,31.0,35.0,27.4,-99.9,79,55,34,30.48,30.37,6,2,13,0.00
2012-3-12,59.0,52.6,45.0,52.0,46.3,34.0,98,80,66,30.40,30.26,4,1,9,0.14
2012-3-13,70.0,57.8,49.0,59.0,51.7,46.0,100,83,48,30.27,30.17,7,2,15,0.06
2012-3-14,75.0,58.6,45.0,55.0,45.8,39.0,98,68,27,30.29,30.21,5,1,12,0.00
2012-3-15,75.0,59.9,47.0,57.0,50.4,43.0,96,73,44,30.32,30.24,7,1,17,0.05
2012-3-16,73.0,59.7,48.0,57.0,51.0,45.0,94,75,46,30.29,30.16,7,2,19,0.18
2012-3-17,73.0,56.3,49.0,60.0,53.2,48.0,100,90,52,30.27,30.22,6,1,9,0.28
2012-3-18,67.0,57.0,51.0,59.0,54.6,50.0,100,93,71,30.35,30.22,2,0,8,0.18
2012-3-19,77.0,62.4,51.0,61.0,53.2,50.0,100,76,39,30.26,30.16,6,1,11,0.01
2012-3-20,77.0,61.0,55.0,62.0,53.6,-99.9,99,81,44,30.26,30.16,6,1,11,0.85
2012-3-21,71.0,61.6,54.0,60.0,55.8,52.0,100,83,58,30.30,30.22,6,1,11,0.82
2012-3-22,70.0,61.2,55.0,61.0,55.0,-99.9,98,82,63,30.28,30.19,4,-6,8,0.00
2012-3-23,66.0,59.9,55.0,62.0,58.3,53.0,99,94,83,30.21,30.00,3,0,11,0.29
2012-3-24,68.0,58.9,49.0,59.0,53.5,44.0,100,85,49,30.00,29.80,9,2,16,0.07
2012-3-25,58.0,53.6,51.0,50.0,47.4,43.0,91,80,67,29.93,29.81,12,4,24,0.01
2012-3-26,71.0,60.5,52.0,47.0,43.9,39.0,74,56,37,30.11,29.91,12,4,24,0.00
2012-3-27,64.0,52.4,42.0,44.0,37.0,27.0,85,58,35,30.27,30.12,6,1,11,0.00
2012-3-28,75.0,59.3,44.0,53.0,45.2,38.0,82,62,40,30.23,30.00,10,3,24,0.00
2012-3-29,75.0,66.5,57.0,52.0,49.3,41.0,71,55,31,30.03,29.95,15,5,31,0.00
2012-3-30,74.0,59.2,52.0,56.0,48.0,39.0,95,70,34,30.06,29.93,5,1,14,0.20
2012-3-31,70.0,60.8,55.0,57.0,52.9,48.0,99,78,50,29.95,29.84,10,2,35,0.21
2012-4-1,75.0,60.1,51.0,54.0,47.2,39.0,95,66,32,29.93,29.85,15,2,36,0.17
2012-4-2,77.0,62.9,50.0,62.0,55.5,49.0,99,79,51,30.00,29.79,11,3,24,0.27
2012-4-3,74.0,59.8,52.0,63.0,54.9,50.0,96,85,59,30.04,29.98,7,1,17,0.29
2012-4-4,75.0,61.9,49.0,62.0,53.5,48.0,100,77,43,30.00,29.77,9,2,15,0.02
2012-4-5,69.0,60.0,55.0,59.0,54.8,52.0,96,84,67,29.81,29.75,7,1,11,0.62
2012-4-6,60.0,51.3,43.0,46.0,41.3,36.0,96,70,50,30.11,29.90,5,2,11,0.01
2012-4-7,68.0,50.0,34.0,39.0,33.7,27.0,90,60,25,30.24,30.11,7,1,16,0.00
2012-4-8,70.0,55.6,40.0,44.0,36.4,30.0,73,50,29,30.19,30.06,11,3,26,0.00
2012-4-9,68.0,54.6,39.0,37.0,30.8,25.0,74,44,20,30.10,29.93,12,4,28,0.00
2012-4-10,64.0,56.5,51.0,36.0,30.2,21.0,47,37,31,29.98,29.88,14,8,30,0.00
2012-4-11,51.0,44.4,38.0,24.0,20.2,16.0,50,38,30,30.10,29.89,16,6,36,0.00
2012-4-12,40.0,33.8,30.0,21.0,19.4,18.0,65,56,41,30.11,30.09,8,1,16,0.00
2012-4-16,81.0,72.4,65.0,57.0,55.4,51.0,73,57,36,30.20,30.15,6,2,12,0.00
2012-4-17,73.0,62.7,55.0,60.0,55.6,51.0,97,79,58,30.23,30.13,7,1,21,0.75
2012-4-18,56.0,51.0,48.0,55.0,49.4,46.0,98,94,91,30.19,30.08,6,1,13,1.67
2012-4-19,63.0,54.6,49.0,54.0,50.6,47.0,98,87,71,30.10,30.03,5,1,10,0.02
2012-4-20,67.0,58.1,52.0,55.0,52.0,50.0,93,81,61,30.06,29.91,4,0,9,0.00
2012-4-21,69.0,59.4,51.0,56.0,52.8,49.0,97,80,59,29.93,29.77,3,0,9,0.08
2012-4-22,57.0,50.4,38.0,53.0,44.4,-99.9,96,84,58,29.80,29.59,11,2,23,0.09
2012-4-23,49.0,40.8,36.0,33.0,27.4,21.0,83,61,37,29.74,29.61,11,4,30,0.05
2012-4-24,55.0,46.8,40.0,42.0,27.7,18.0,88,48,30,29.88,29.70,12,4,39,6.55
2012-4-25,64.0,51.3,42.0,55.0,47.2,40.0,96,86,67,29.97,29.86,6,1,19,6.55
2012-4-26,70.0,59.5,53.0,62.0,56.8,52.0,99,92,73,29.96,29.84,13,2,27,0.66
2012-4-27,74.0,64.7,55.0,58.0,52.1,44.0,94,66,37,30.13,29.92,9,2,17,0.04
2012-4-28,68.0,60.2,55.0,54.0,48.6,42.0,87,66,50,30.17,30.11,7,1,11,0.00
2012-4-29,80.0,64.4,51.0,61.0,54.9,-99.9,99,75,49,30.22,30.15,5,1,11,0.00
2012-4-30,76.0,67.2,57.0,66.0,60.9,56.0,99,81,64,30.24,30.14,4,0,11,0.00
2012-5-1,83.0,70.1,59.0,65.0,61.3,57.0,98,76,44,30.20,30.14,3,0,8,0.00
2012-5-2,83.0,71.1,63.0,67.0,62.8,56.0,93,77,40,30.22,30.14,3,0,10,0.00
2012-5-3,79.0,68.0,56.0,62.0,59.0,54.0,95,75,48,30.22,30.15,4,1,9,0.00
2012-5-4,77.0,68.0,62.0,66.0,60.2,57.0,92,77,55,30.17,30.05,5,1,10,0.14
2012-5-5,75.0,65.5,59.0,63.0,59.4,56.0,98,82,56,30.06,29.97,8,1,0,0.00
2012-5-6,74.0,65.2,56.0,62.0,57.9,-99.9,95,80,63,30.10,30.01,6,1,0,0.00
2012-5-7,71.0,64.9,61.0,61.0,59.4,57.0,94,83,67,30.10,30.01,6,1,0,0.00
2012-5-8,74.0,64.3,59.0,66.0,61.3,57.0,100,90,70,30.04,29.92,4,0,0,0.00
2012-5-9,63.0,58.3,53.0,62.0,55.8,46.0,100,92,74,29.96,29.80,6,0,15,0.00
2012-5-10,65.0,56.1,49.0,49.0,43.4,38.0,88,64,42,30.03,29.83,8,2,17,0.00
2012-5-11,68.0,54.0,41.0,49.0,43.4,38.0,90,69,46,30.25,30.03,3,0,11,0.00
2012-5-12,66.0,58.3,50.0,56.0,51.6,44.0,94,79,70,30.34,30.24,2,0,6,0.00
2012-5-13,59.0,55.5,53.0,57.0,53.5,-99.9,99,95,91,30.29,30.11,1,0,4,0.41
2012-5-14,71.0,60.0,55.0,64.0,58.5,55.0,100,95,77,30.11,29.96,4,0,18,1.35
2012-5-15,71.0,60.5,54.0,64.0,59.1,54.0,100,95,75,30.06,30.00,1,0,5,0.01
2012-5-16,73.0,60.0,54.0,64.0,57.4,52.0,100,92,65,30.06,29.98,4,0,10,0.03
2012-5-17,73.0,60.9,51.0,59.0,54.6,50.0,99,82,54,30.12,30.02,3,0,9,0.70
2012-5-18,69.0,60.9,54.0,60.0,58.0,54.0,100,91,69,30.16,30.07,4,0,9,1.17
2012-5-19,71.0,61.2,51.0,60.0,55.1,49.0,98,82,65,30.20,30.13,3,0,10,0.00
2012-5-20,74.0,61.6,52.0,56.0,51.0,-99.9,92,72,49,30.20,30.12,4,1,9,0.00
2012-5-21,77.0,61.7,53.0,62.0,55.8,50.0,100,82,53,30.14,29.99,3,0,7,0.00
2012-5-22,67.0,60.3,53.0,65.0,59.1,53.0,100,96,80,30.01,29.89,1,0,4,0.14
2012-5-23,65.0,60.3,57.0,63.0,60.0,57.0,100,99,91,30.00,29.91,3,0,7,0.61
2012-5-24,75.0,63.6,55.0,63.0,59.3,55.0,100,87,61,30.12,29.99,4,0,9,0.04
2012-5-25,79.0,68.1,58.0,67.0,62.4,57.0,100,83,60,30.22,30.11,3,0,8,0.00
2012-5-26,80.0,69.3,59.0,68.0,63.1,58.0,100,82,58,30.24,30.18,4,0,9,0.00
2012-5-27,78.0,70.6,63.0,66.0,62.5,-99.9,97,80,58,30.22,30.16,5,1,12,0.00
2012-5-28,78.0,70.2,65.0,66.0,63.8,61.0,98,81,62,30.18,30.08,4,1,12,0.05
2012-5-29,72.0,65.9,63.0,69.0,65.2,63.0,100,98,87,30.11,29.95,0,0,4,0.12
2012-5-30,80.0,67.5,59.0,66.0,57.6,47.0,100,76,31,29.97,29.90,8,1,13,0.01
2012-5-31,80.0,66.0,54.0,62.0,57.1,51.0,93,75,48,29.99,29.92,2,0,9,0.00
2012-6-1,70.0,62.6,57.0,65.0,59.4,47.0,100,90,68,29.95,29.80,8,1,19,0.76
2012-6-2,66.0,56.9,49.0,49.0,45.2,42.0,86,66,46,30.00,29.86,5,1,12,0.17
2012-6-3,73.0,60.0,47.0,55.0,49.0,-99.9,92,71,46,30.02,29.94,7,2,22,0.00
2012-6-4,70.0,63.8,57.0,59.0,55.0,52.0,89,74,60,29.95,29.82,9,1,16,0.00
2012-6-5,68.0,62.3,57.0,59.0,57.2,55.0,98,84,69,29.93,29.81,3,0,8,0.04
2012-6-6,60.0,57.7,56.0,57.0,55.5,54.0,100,93,85,30.06,29.91,3,0,7,0.48
2012-6-7,70.0,61.4,53.0,59.0,56.2,52.0,99,84,63,30.12,30.06,3,0,7,0.38
2012-6-8,74.0,62.8,53.0,61.0,55.9,52.0,98,80,56,30.14,30.08,3,0,7,0.00
2012-6-9,75.0,65.6,58.0,64.0,59.1,54.0,92,80,65,30.16,30.09,4,0,7,0.00
2012-6-10,68.0,62.5,58.0,60.0,56.5,-99.9,93,84,68,30.20,30.12,3,0,8,0.00
2012-6-11,71.0,65.6,61.0,68.0,64.5,58.0,100,96,84,30.19,30.06,2,0,7,1.03
2012-6-12,79.0,69.9,63.0,72.0,66.1,61.0,100,89,65,30.08,29.98,5,0,13,0.71
2012-6-13,77.0,68.5,60.0,69.0,63.7,59.0,100,85,65,30.11,30.02,4,0,9,0.01
2012-6-14,75.0,68.8,63.0,62.0,58.6,52.0,91,70,60,30.22,30.11,4,1,9,0.00
2012-6-15,70.0,65.0,61.0,63.0,59.4,57.0,94,83,73,30.28,30.19,4,1,9,0.03
2012-6-16,71.0,63.7,56.0,62.0,57.9,54.0,96,82,67,30.32,30.21,4,1,8,0.03
2012-6-17,74.0,65.8,57.0,64.0,58.0,-99.9,97,78,65,30.23,30.10,2,0,6,0.04
2012-6-18,76.0,67.9,61.0,67.0,64.3,61.0,100,89,69,30.19,30.09,4,0,7,0.13
2012-6-19,80.0,68.9,59.0,68.0,62.9,58.0,98,83,60,30.26,30.19,4,0,9,0.01
2012-6-20,81.0,70.3,61.0,69.0,63.6,59.0,97,81,57,30.28,30.18,3,0,8,0.00
2012-6-21,81.0,70.7,62.0,69.0,65.2,60.0,98,83,65,30.19,30.05,1,0,4,0.00
2012-6-22,80.0,69.0,64.0,71.0,65.9,62.0,100,90,67,30.07,29.99,3,0,8,0.30
2012-6-23,80.0,70.3,62.0,70.0,66.3,62.0,100,88,67,30.11,30.01,2,0,6,0.29
2012-6-24,81.0,72.8,65.0,71.0,67.1,64.0,99,83,66,30.12,30.01,4,0,9,0.00
2012-6-25,83.0,72.0,62.0,69.0,64.1,60.0,100,78,52,30.03,29.86,2,0,6,0.00
2012-6-26,75.0,66.7,60.0,60.0,56.5,52.0,92,71,52,29.99,29.88,5,1,8,0.00
2012-6-27,79.0,63.2,52.0,64.0,53.7,48.0,88,73,47,30.11,29.98,2,0,6,0.00
2012-6-28,88.0,71.1,54.0,62.0,53.5,49.0,87,59,31,30.13,30.06,4,0,17,0.00
2012-6-29,91.0,82.5,73.0,72.0,61.4,50.0,73,50,31,30.08,29.98,7,1,18,0.00
2012-6-30,93.0,80.4,69.0,73.0,67.9,62.0,84,67,42,30.06,30.00,2,0,5,0.00
2012-7-1,93.0,77.1,68.0,73.0,68.5,64.0,95,77,44,30.14,30.02,2,0,6,0.05
2012-7-2,83.0,71.4,62.0,72.0,66.4,61.0,100,86,61,30.25,30.06,4,0,9,0.56
2012-7-3,82.0,69.5,63.0,73.0,66.6,61.0,99,91,65,30.15,30.04,5,0,13,0.37
2012-7-4,67.0,66.3,66.0,66.0,66.0,66.0,99,99,97,30.09,30.07,1,0,3,0.37
2012-7-5,84.0,71.8,64.0,75.0,69.2,63.0,100,92,70,30.12,30.05,7,0,18,0.39
2012-7-6,85.0,70.8,61.0,73.0,66.5,61.0,100,88,61,30.11,30.04,1,0,7,0.19
2012-7-7,87.0,74.6,65.0,75.0,69.2,64.0,100,85,58,30.13,30.08,3,0,6,0.00
2012-7-8,88.0,76.3,69.0,72.0,69.2,65.0,97,80,54,30.11,29.97,5,1,18,0.00
2012-7-9,83.0,73.5,66.0,71.0,67.0,64.0,96,81,58,30.02,29.97,4,0,9,0.00
2012-7-10,79.0,70.8,66.0,69.0,66.5,64.0,98,86,67,30.08,30.00,3,0,7,1.04
2012-7-11,67.0,65.6,64.0,67.0,64.5,63.0,99,97,93,30.14,30.04,2,0,8,1.82
2012-7-12,65.0,64.1,62.0,64.0,62.7,61.0,97,95,92,30.16,30.11,4,1,8,0.73
2012-7-13,73.0,67.7,64.0,69.0,65.6,63.0,98,93,82,30.20,30.11,2,0,7,0.18
2012-7-14,76.0,69.6,67.0,71.0,67.8,66.0,99,94,79,30.23,30.16,3,0,7,0.37
2012-7-15,78.0,70.9,66.0,70.0,66.8,64.0,98,88,66,30.23,30.11,2,0,7,0.00
2012-7-16,82.0,71.7,64.0,72.0,65.3,61.0,97,81,59,30.15,30.02,3,0,13,0.00
2012-7-17,76.0,69.9,63.0,71.0,65.5,61.0,96,86,78,30.06,29.98,2,0,6,0.00
2012-7-18,82.0,71.7,62.0,71.0,67.4,61.0,97,87,65,30.07,29.98,1,0,5,0.01
2012-7-19,84.0,72.4,63.0,71.0,66.7,62.0,98,83,57,30.09,30.00,3,0,11,0.01
2012-7-20,78.0,71.3,68.0,69.0,65.6,63.0,89,83,64,30.03,29.95,3,0,7,0.00
2012-7-21,83.0,72.0,65.0,70.0,66.1,63.0,98,83,62,30.12,29.99,4,0,7,0.01
2012-7-22,83.0,72.7,65.0,72.0,66.5,63.0,95,82,61,30.22,30.11,2,0,7,0.04
2012-7-23,82.0,72.7,65.0,72.0,67.5,64.0,99,85,65,30.24,30.11,3,0,9,0.07
2012-7-24,85.0,77.8,73.0,69.0,66.2,64.0,79,68,54,30.14,29.98,5,1,18,0.02
2012-7-25,84.0,75.8,66.0,74.0,68.6,60.0,97,79,62,30.08,29.98,6,1,15,0.19
2012-7-26,87.0,77.0,69.0,72.0,68.4,65.0,96,77,54,30.01,29.89,3,1,11,0.01
2012-7-27,85.0,75.8,67.0,72.0,66.6,64.0,94,74,55,30.03,29.92,6,1,13,0.21
2012-7-28,83.0,72.4,64.0,69.0,64.3,61.0,97,78,50,30.07,29.99,7,1,17,0.01
2012-7-29,81.0,70.4,61.0,67.0,61.2,57.0,92,74,45,30.08,30.00,2,0,7,0.01
2012-7-30,80.0,71.6,66.0,67.0,62.6,59.0,88,74,56,30.06,29.98,4,1,11,0.00
2012-7-31,73.0,67.8,66.0,66.0,63.6,62.0,94,86,77,30.04,29.95,2,0,4,0.17
2012-8-1,82.0,70.2,60.0,70.0,64.9,59.0,99,85,59,29.99,29.92,2,0,8,0.00
2012-8-2,84.0,72.3,64.0,70.0,65.4,62.0,96,80,51,29.99,29.92,2,0,9,0.00
2012-8-3,81.0,70.8,63.0,71.0,66.2,61.0,96,86,70,30.09,29.96,3,0,7,0.02
2012-8-4,76.0,69.7,66.0,70.0,67.2,65.0,99,92,77,30.22,30.08,2,0,7,1.01
2012-8-5,81.0,71.6,66.0,71.0,67.4,65.0,99,88,64,30.24,30.14,3,0,7,0.07
2012-8-6,78.0,69.3,66.0,69.0,66.4,64.0,97,91,74,30.17,30.06,4,0,7,0.30
2012-8-7,77.0,69.1,65.0,70.0,67.1,64.0,99,94,76,30.08,30.01,1,0,6,0.06
2012-8-8,80.0,70.2,65.0,71.0,66.8,63.0,99,90,72,30.06,30.00,4,0,10,0.01
2012-8-9,80.0,68.3,63.0,71.0,65.3,62.0,98,90,69,30.05,29.91,3,0,8,0.48
2012-8-10,76.0,68.0,62.0,69.0,65.3,61.0,99,92,74,29.92,29.84,3,0,11,1.00
2012-8-11,76.0,67.3,61.0,68.0,63.5,58.0,100,88,68,29.99,29.89,2,0,9,0.99
2012-8-12,77.0,66.1,56.0,64.0,59.4,54.0,95,80,54,30.07,29.99,3,0,8,0.00
2012-8-13,75.0,64.7,58.0,65.0,60.0,56.0,98,86,63,30.07,29.98,4,0,9,0.01
2012-8-14,80.0,68.8,57.0,68.0,62.3,55.0,96,81,57,30.05,29.93,2,0,6,0.02
2012-8-15,75.0,65.7,60.0,66.0,60.7,56.0,96,85,59,30.11,30.01,7,0,13,0.00
2012-8-16,77.0,67.7,56.0,64.0,58.8,53.0,96,75,54,30.14,30.06,4,0,8,0.00
2012-8-17,73.0,66.0,59.0,67.0,61.3,56.0,96,85,72,30.13,29.98,4,0,6,0.00
2012-8-18,73.0,65.5,60.0,64.0,61.4,58.0,97,87,73,30.04,29.97,3,0,9,0.05
2012-8-19,73.0,66.0,62.0,64.0,62.2,57.0,97,88,66,30.01,29.93,1,0,3,0.18
2012-8-20,75.0,65.5,59.0,61.0,57.0,52.0,95,76,47,30.08,29.96,4,0,7,0.01
2012-8-21,74.0,62.1,53.0,61.0,55.6,50.0,94,80,57,30.17,30.07,3,0,8,0.05
2012-8-22,73.0,60.9,54.0,63.0,57.2,52.0,98,89,61,30.22,30.14,5,0,11,0.06
2012-8-23,74.0,66.0,61.0,66.0,62.3,60.0,98,88,66,30.23,30.19,3,0,7,0.00
2012-8-24,74.0,64.6,58.0,64.0,59.7,56.0,98,85,65,30.24,30.19,4,0,9,0.01
2012-8-25,75.0,65.7,57.0,65.0,60.3,55.0,97,83,66,30.25,30.18,3,0,9,0.01
2012-8-26,77.0,66.5,56.0,67.0,61.3,54.0,97,84,64,30.25,30.19,3,0,7,0.00
2012-8-27,78.0,67.7,59.0,66.0,61.7,57.0,97,82,61,30.25,30.15,4,0,9,0.00
2012-8-28,80.0,68.1,60.0,69.0,63.1,57.0,96,85,61,30.15,30.07,3,0,7,0.00
2012-8-29,78.0,67.8,63.0,70.0,65.0,61.0,97,91,68,30.12,30.05,3,0,7,0.43
2012-8-30,77.0,69.6,63.0,71.0,67.0,62.0,100,92,78,30.26,30.09,1,0,4,0.20
2012-8-31,81.0,70.3,64.0,71.0,67.0,63.0,98,90,66,30.32,30.23,3,0,6,0.58
2012-9-1,78.0,70.4,66.0,73.0,68.0,65.0,100,92,72,30.27,30.17,3,0,7,0.70
2012-9-2,80.0,71.7,66.0,71.0,67.8,65.0,99,88,68,30.19,30.05,2,0,9,0.12
2012-9-3,73.0,70.3,68.0,71.0,68.4,65.0,97,94,87,30.11,30.01,2,0,9,0.16
2012-9-4,71.0,68.3,66.0,71.0,67.5,65.0,99,98,94,30.05,29.98,0,0,3,0.31
2012-9-5,76.0,70.6,68.0,72.0,69.2,67.0,99,95,82,30.01,29.95,3,0,6,0.05
2012-9-6,77.0,69.6,65.0,68.0,65.8,62.0,99,89,63,30.05,29.96,3,0,8,0.03
2012-9-7,79.0,68.6,61.0,69.0,64.7,60.0,99,88,67,30.06,29.94,4,0,7,0.00
2012-9-8,76.0,66.7,59.0,68.0,62.4,56.0,97,87,63,29.96,29.83,6,1,17,0.04
2012-9-9,70.0,58.7,48.0,56.0,50.3,45.0,96,76,43,30.08,29.90,5,0,10,0.02
2012-9-10,70.0,58.1,48.0,58.0,51.6,45.0,96,80,56,30.19,30.06,3,0,5,0.01
2012-9-11,70.0,61.7,55.0,59.0,53.3,47.0,89,75,63,30.31,30.19,4,0,8,0.00
2012-9-12,58.0,56.8,56.0,57.0,54.3,53.0,97,92,90,30.34,30.29,0,0,2,0.00
2012-9-14,64.0,60.5,57.0,59.0,56.2,53.0,88,87,85,30.23,30.21,0,0,2,0.00
2012-9-15,73.0,66.4,62.0,62.0,60.9,60.0,95,83,63,30.18,30.15,0,0,5,0.24
2012-9-16,70.0,63.9,61.0,65.0,62.0,60.0,98,94,80,30.17,30.11,2,0,8,0.28
2012-9-17,66.0,63.2,61.0,65.0,62.3,60.0,99,97,94,30.13,29.88,3,0,3,0.00
2012-9-18,66.0,63.9,60.0,66.0,63.2,58.0,99,98,92,29.89,29.76,3,1,12,1.91
2012-9-19,68.0,61.8,53.0,58.0,55.8,51.0,94,81,62,30.14,30.06,3,0,7,0.00
2012-9-20,70.0,61.0,55.0,60.0,55.8,52.0,94,84,67,30.16,30.07,3,0,6,0.00
2012-9-21,72.0,60.8,51.0,61.0,55.8,49.0,98,85,54,30.13,30.02,3,0,4,0.00
2012-9-22,73.0,66.3,60.0,61.0,56.7,47.0,90,72,60,30.07,29.97,10,2,7,0.00
2012-9-23,66.0,57.4,51.0,48.0,39.1,-99.9,77,54,32,30.14,30.05,8,1,8,0.00
2012-9-24,64.0,49.9,38.0,50.0,40.9,34.0,89,72,51,30.21,30.14,3,0,8,0.00
2012-9-25,69.0,56.0,45.0,59.0,50.0,42.0,92,81,57,30.21,30.16,6,0,0,0.00
2012-9-26,74.0,62.5,53.0,63.0,56.7,50.0,95,82,62,30.23,30.16,4,0,2,0.00
2012-9-27,74.0,61.1,50.0,61.0,55.2,47.0,98,82,53,30.24,30.15,4,0,9,0.00
2012-9-28,74.0,61.7,55.0,65.0,58.1,53.0,97,89,61,30.18,30.04,5,0,11,0.31
2012-9-29,65.0,60.6,55.0,64.0,59.1,53.0,99,95,84,30.08,29.91,1,0,5,0.02
2012-9-30,65.0,56.3,50.0,55.0,52.3,48.0,98,87,63,29.96,29.87,2,0,7,0.00
2012-10-1,58.0,56.2,55.0,57.0,54.1,53.0,96,93,88,29.91,29.82,7,2,11,0.00
2012-10-2,70.0,62.7,56.0,67.0,60.4,55.0,99,92,77,30.02,29.80,6,0,12,0.00
2012-10-3,70.0,63.3,58.0,62.0,57.9,53.0,94,83,55,30.21,30.02,2,0,8,0.00
2012-10-4,69.0,59.4,53.0,57.0,52.4,49.0,94,79,50,30.25,30.19,5,0,7,0.00
2012-10-5,71.0,57.0,47.0,59.0,51.8,45.0,97,84,59,30.24,30.06,1,0,5,0.00
2012-10-6,68.0,59.2,51.0,59.0,53.8,48.0,94,83,65,30.07,29.94,4,0,12,0.01
2012-10-7,55.0,51.7,46.0,54.0,49.2,43.0,97,91,84,30.09,29.95,3,0,11,0.35
2012-10-8,47.0,44.4,42.0,44.0,40.2,34.0,93,85,67,30.15,30.06,3,0,10,0.34
2012-10-9,55.0,47.1,43.0,48.0,43.5,40.0,93,87,77,30.12,30.04,2,0,6,0.00
2012-10-10,58.0,50.0,40.0,49.0,43.8,38.0,96,80,66,30.14,30.02,8,2,23,0.00
2012-10-11,62.0,48.8,37.0,49.0,42.0,34.0,93,78,54,30.24,30.13,4,0,7,0.00
2012-10-12,66.0,54.5,45.0,55.0,49.0,42.0,95,82,61,30.29,30.16,3,0,10,0.00
2012-10-13,58.0,50.7,45.0,48.0,43.4,39.0,92,77,61,30.40,30.29,4,1,10,0.00
2012-10-14,63.0,55.5,46.0,57.0,51.7,43.0,92,87,81,30.29,30.04,3,0,6,0.01
2012-10-15,61.0,58.2,52.0,59.0,51.1,39.0,98,79,56,30.04,29.83,9,2,22,0.75
2012-10-16,63.0,52.0,42.0,47.0,40.8,36.0,88,67,46,29.97,29.87,8,2,23,0.03
2012-10-17,64.0,50.1,40.0,48.0,42.4,37.0,93,77,49,29.97,29.88,5,0,9,0.00
2012-10-18,61.0,54.0,46.0,55.0,49.8,42.0,94,86,78,29.91,29.80,2,0,5,0.00
2012-10-19,63.0,53.4,43.0,51.0,36.6,31.0,94,55,34,29.81,29.70,5,1,14,0.00
2012-10-20,59.0,51.6,46.0,41.0,37.5,34.0,70,59,47,29.97,29.77,8,2,18,0.00
2012-10-21,66.0,50.8,39.0,45.0,40.4,35.0,92,70,39,30.15,29.97,4,0,14,0.00
2012-10-22,70.0,53.3,42.0,50.0,44.1,38.0,90,73,47,30.22,30.14,4,0,8,0.00
2012-10-23,72.0,56.9,47.0,54.0,48.1,43.0,92,75,43,30.20,30.11,5,0,7,0.00
2012-10-24,73.0,57.2,47.0,54.0,48.5,44.0,95,75,40,30.21,30.11,4,0,11,0.00
2012-10-25,69.0,57.5,49.0,52.0,48.3,43.0,86,72,52,30.16,30.11,6,1,10,0.00
2012-10-26,70.0,61.5,55.0,56.0,52.9,49.0,90,74,53,30.12,29.99,5,1,12,0.00
2012-10-27,66.0,55.3,49.0,54.0,49.7,45.0,92,82,66,30.01,29.81,2,0,6,0.00
2012-10-28,53.0,47.2,41.0,45.0,40.5,30.0,89,78,65,29.84,29.73,18,3,33,0.01
2012-10-29,42.0,38.3,34.0,31.0,28.3,26.0,83,68,60,29.74,29.53,17,8,37,0.01
2012-10-30,36.0,34.5,33.0,30.0,28.3,27.0,83,78,73,29.64,29.42,12,5,26,0.05
2012-10-31,47.0,39.8,35.0,32.0,28.4,22.0,79,64,43,29.78,29.61,13,4,30,0.04
2012-11-1,48.0,44.2,39.0,29.0,23.3,17.0,64,44,33,29.85,29.78,9,5,28,0.00
2012-11-2,56.0,49.5,43.0,39.0,29.3,17.0,52,46,33,29.96,29.82,13,6,28,0.00
2012-11-3,66.0,48.6,35.0,46.0,32.5,24.0,76,56,26,30.06,29.96,9,1,18,0.00
2012-11-4,62.0,51.1,44.0,46.0,40.1,36.0,78,67,52,29.98,29.93,7,1,12,0.00
2012-11-5,53.0,45.6,38.0,34.0,30.0,25.0,85,56,33,30.04,29.94,4,1,9,0.00
2012-11-15,32.0,32.0,32.0,27.0,27.0,27.0,83,83,83,30.19,30.19,2,1,2,0.00
2012-11-16,53.0,43.8,32.0,35.0,28.4,26.0,85,56,36,30.30,30.19,5,1,9,0.00
2012-11-17,52.0,45.1,32.0,27.0,22.8,14.0,75,44,27,30.42,30.32,6,2,12,0.00
2012-11-18,51.0,43.2,38.0,39.0,31.7,15.0,86,65,33,30.38,30.29,9,2,17,0.00
2012-11-19,58.0,45.7,37.0,47.0,39.8,33.0,89,80,65,30.30,30.15,6,1,9,0.00
2012-11-20,58.0,45.0,38.0,41.0,35.2,29.0,94,72,38,30.15,30.02,5,1,16,0.00
2012-11-21,59.0,45.0,36.0,39.0,33.1,30.0,84,65,41,30.16,30.06,5,1,11,0.00
2012-11-22,59.0,43.9,34.0,37.0,31.5,29.0,84,64,34,30.24,30.12,5,0,8,0.00
2012-11-23,60.0,45.2,31.0,43.0,33.8,27.0,86,66,46,30.14,29.93,12,3,28,0.00
2012-11-24,41.0,34.3,28.0,27.0,18.6,13.0,66,53,33,30.05,29.93,11,4,23,0.00
2012-11-25,52.0,33.5,21.0,19.0,14.7,11.0,74,50,19,30.08,29.96,7,1,17,0.00
2012-11-26,59.0,43.3,29.0,33.0,23.6,16.0,60,47,33,30.19,30.01,5,1,10,0.01
2012-11-27,50.0,43.8,35.0,45.0,39.0,31.0,92,83,60,30.16,30.05,5,1,11,0.06
2012-11-28,48.0,36.2,28.0,32.0,24.8,16.0,91,66,35,30.30,30.14,7,1,10,0.04
2012-11-29,51.0,35.7,26.0,31.0,24.0,14.0,83,64,37,30.37,30.26,4,1,9,0.00
2012-11-30,57.0,39.9,29.0,35.0,30.4,25.0,88,72,34,30.30,30.20,4,0,7,0.01
2012-12-1,57.0,43.2,34.0,40.0,35.9,31.0,92,77,50,30.35,30.24,5,1,8,0.01
2012-12-2,62.0,50.8,42.0,47.0,43.3,38.0,92,77,53,30.32,30.21,4,1,10,0.01
2012-12-3,64.0,51.0,43.0,50.0,43.8,39.0,91,78,56,30.29,30.20,3,0,6,0.00
2012-12-4,64.0,52.3,43.0,49.0,44.0,40.0,94,75,51,30.28,30.16,3,1,9,0.00
2012-12-5,59.0,54.3,41.0,51.0,45.9,33.0,80,73,66,30.17,30.11,6,1,10,0.01
2012-12-6,48.0,42.8,39.0,41.0,33.9,-99.9,87,73,40,30.21,30.12,5,0,8,0.07
2012-12-7,60.0,47.8,42.0,50.0,42.4,36.0,94,82,66,30.14,29.97,4,0,9,0.02
2012-12-8,63.0,49.7,42.0,53.0,44.5,40.0,97,84,56,30.04,29.95,5,0,11,0.00
2012-12-9,63.0,54.2,47.0,56.0,49.2,45.0,96,84,63,30.08,29.98,5,1,11,0.02
2012-12-10,57.0,54.5,50.0,54.0,51.1,47.0,95,89,81,29.98,29.70,5,1,12,0.23
2012-12-11,50.0,37.2,31.0,48.0,33.2,28.0,94,85,72,30.08,29.74,4,1,10,0.01
2012-12-12,39.0,36.0,31.0,32.0,29.9,28.0,90,79,70,30.20,30.07,3,0,11,0.01
2012-12-13,46.0,36.5,29.0,29.0,23.3,19.0,80,61,34,30.28,30.18,5,1,10,0.00
2012-12-14,55.0,36.4,26.0,32.0,25.4,20.0,85,66,36,30.28,30.16,5,1,8,0.00
2012-12-15,55.0,43.5,36.0,38.0,28.7,23.0,78,57,36,30.17,30.01,4,0,8,0.00
2012-12-16,52.0,47.9,43.0,51.0,45.3,38.0,96,91,69,30.01,29.91,2,0,7,0.31
2012-12-17,50.0,48.4,48.0,49.0,44.9,40.0,96,87,76,29.70,29.65,8,3,20,0.01
2012-12-18,48.0,43.0,32.0,43.0,32.0,21.0,91,66,39,29.91,29.66,11,4,25,0.05
2012-12-19,59.0,46.1,29.0,40.0,33.3,23.0,79,62,42,30.06,29.89,13,2,33,0.00
2012-12-20,47.0,42.5,35.0,44.0,36.6,25.0,95,80,63,30.06,29.55,15,2,36,0.57
2012-12-21,35.0,30.6,28.0,26.0,19.9,14.0,73,64,55,29.86,29.57,21,13,48,0.57
2012-12-22,45.0,32.9,25.0,14.0,7.3,-1.0,58,36,15,30.08,29.82,16,5,41,0.00
2012-12-23,47.0,35.3,24.0,34.0,19.3,7.0,71,53,36,30.07,29.97,4,1,6,0.01
2012-12-24,49.0,43.8,40.0,47.0,40.6,30.0,96,89,52,29.97,29.80,3,0,13,0.82
2012-12-25,47.0,41.9,36.0,43.0,37.2,34.0,96,84,71,30.02,29.88,9,2,21,0.13
2012-12-26,42.0,37.3,30.0,39.0,33.6,23.0,94,86,74,29.91,29.45,13,6,37,1.81
2012-12-27,34.0,30.2,26.0,26.0,23.3,22.0,85,75,66,29.99,29.67,14,3,29,0.01
2012-12-28,43.0,32.4,23.0,32.0,26.4,19.0,89,79,63,30.03,29.88,4,0,7,0.09
2012-12-29,40.0,35.1,33.0,35.0,31.9,31.0,93,88,73,29.88,29.69,11,2,25,0.23
2012-12-30,36.0,29.8,24.0,22.0,18.9,15.0,75,64,53,30.28,30.17,6,1,12,0.00
2012-12-31,44.0,32.1,23.0,25.0,20.8,16.0,78,64,42,30.27,30.03,2,0,6,0.00
2013-1-1,48.0,41.6,34.0,45.0,37.2,24.0,95,85,65,30.03,29.91,10,1,20,0.05